Аэропорт: Угольный. Анадырь

ICAO: UHMA

METAR:
2020-10-19 22:30:00
UHMA 192230Z 15004MPS CAVOK 02/M03 Q1018 R19/39//45 NOSIG RMK TDZ R19/15004G06MPS END R19/13004G07MPS QFE758/1011
METAR:
2020-10-19 19:49:00
TAF UHMA 191949Z 1921/2021 13008G13MPS 9999 SCT033 TEMPO 1921/2021 16003G08MPS 5000 -SHRA BR SCT005 BKN017CB